createdAt,value
2023-03-21T00:01:54.949Z,100843.39
2023-03-21T00:04:25.142Z,100840.64
2023-03-21T00:06:54.317Z,100838.30
2023-03-21T00:09:23.576Z,100835.13
2023-03-21T00:11:54.011Z,100836.94
2023-03-21T00:14:23.962Z,100835.54
2023-03-21T00:16:54.044Z,100831.23
2023-03-21T00:19:26.742Z,100830.19
2023-03-21T00:24:44.609Z,100826.97
2023-03-21T00:27:41.311Z,100831.30
2023-03-21T00:30:03.153Z,100824.76
2023-03-21T00:32:35.544Z,100835.34
2023-03-21T00:35:47.993Z,100831.52
2023-03-21T00:38:03.268Z,100830.28
2023-03-21T00:40:40.391Z,100833.52
2023-03-21T00:43:12.237Z,100827.73
2023-03-21T00:45:42.206Z,100823.69
2023-03-21T00:48:11.286Z,100827.21
2023-03-21T00:50:45.669Z,100826.31
2023-03-21T00:53:15.545Z,100826.20
2023-03-21T00:55:43.925Z,100821.64
2023-03-21T00:58:13.252Z,100818.45
2023-03-21T01:00:42.130Z,100814.20
2023-03-21T01:03:23.606Z,100809.54
2023-03-21T01:06:07.415Z,100798.87
2023-03-21T01:08:51.270Z,100800.40
2023-03-21T01:11:26.527Z,100796.91
2023-03-21T01:14:03.972Z,100794.85
2023-03-21T01:16:36.468Z,100788.89
2023-03-21T01:19:09.452Z,100785.55
2023-03-21T01:21:41.309Z,100786.48
2023-03-21T01:24:10.011Z,100786.48
2023-03-21T01:26:39.127Z,100789.88
2023-03-21T01:29:07.813Z,100784.80
2023-03-21T01:31:36.429Z,100785.31
2023-03-21T01:34:05.532Z,100782.94
2023-03-21T01:36:34.031Z,100781.90
2023-03-21T01:39:06.961Z,100781.14
2023-03-21T01:41:43.337Z,100781.78
2023-03-21T01:44:28.468Z,100773.10
2023-03-21T01:47:09.688Z,100773.55
2023-03-21T01:49:50.834Z,100764.05
2023-03-21T01:52:38.907Z,100765.84
2023-03-21T01:55:16.437Z,100762.94
2023-03-21T01:58:05.980Z,100760.66
2023-03-21T02:01:08.673Z,100758.56
2023-03-21T02:03:50.865Z,100760.73
2023-03-21T02:06:50.832Z,100756.16
2023-03-21T02:09:37.712Z,100754.23
2023-03-21T02:12:09.040Z,100757.64
2023-03-21T02:14:39.880Z,100761.22
2023-03-21T02:17:20.918Z,100758.17
2023-03-21T02:20:22.328Z,100756.65
2023-03-21T02:23:06.366Z,100753.74
2023-03-21T02:25:47.185Z,100755.23
2023-03-21T02:28:21.094Z,100764.86
2023-03-21T02:31:02.330Z,100762.13
2023-03-21T02:33:46.656Z,100759.92
2023-03-21T02:36:26.687Z,100763.13
2023-03-21T02:39:26.874Z,100766.26
2023-03-21T02:42:21.626Z,100762.88
2023-03-21T02:45:16.844Z,100763.92
2023-03-21T02:47:53.515Z,100761.61
2023-03-21T02:50:35.712Z,100762.05
2023-03-21T02:53:06.386Z,100764.38
2023-03-21T02:55:36.078Z,100764.86
2023-03-21T02:58:13.181Z,100765.33
2023-03-21T03:00:56.789Z,100758.71
2023-03-21T03:03:36.249Z,100753.81
2023-03-21T03:06:23.986Z,100756.02
2023-03-21T03:09:25.004Z,100753.92
2023-03-21T03:11:59.273Z,100750.24
2023-03-21T03:15:07.420Z,100758.80
2023-03-21T03:17:39.938Z,100747.83
2023-03-21T03:20:27.412Z,100752.90
2023-03-21T03:22:59.167Z,100749.30
2023-03-21T03:25:41.934Z,100750.38
2023-03-21T03:28:11.880Z,100750.16
2023-03-21T03:30:46.748Z,100756.48
2023-03-21T03:33:23.758Z,100754.80
2023-03-21T03:36:04.399Z,100756.22
2023-03-21T03:38:35.716Z,100750.54
2023-03-21T03:41:19.332Z,100750.31
2023-03-21T03:43:57.101Z,100750.05
2023-03-21T03:46:36.537Z,100749.58
2023-03-21T03:49:08.504Z,100750.35
2023-03-21T03:51:43.040Z,100752.65
2023-03-21T03:54:39.774Z,100747.73
2023-03-21T03:57:08.950Z,100752.42
2023-03-21T03:59:38.369Z,100756.39
2023-03-21T04:02:20.652Z,100749.42
2023-03-21T04:04:53.235Z,100753.56
2023-03-21T04:07:22.638Z,100752.55
2023-03-21T04:09:53.525Z,100751.29
2023-03-21T04:12:22.732Z,100748.09
2023-03-21T04:15:14.265Z,100747.36
2023-03-21T04:17:48.932Z,100753.18
2023-03-21T04:20:30.032Z,100753.08
2023-03-21T04:23:08.107Z,100750.63
2023-03-21T04:25:40.321Z,100755.88
2023-03-21T04:28:11.951Z,100754.23
2023-03-21T04:31:01.394Z,100748.90
2023-03-21T04:33:38.639Z,100745.16
2023-03-21T04:36:09.683Z,100743.52
2023-03-21T04:38:39.471Z,100744.70
2023-03-21T04:41:08.448Z,100750.33
2023-03-21T04:43:38.707Z,100751.80
2023-03-21T04:46:07.814Z,100747.88
2023-03-21T04:48:36.860Z,100746.16
2023-03-21T04:51:07.893Z,100748.04
2023-03-21T04:53:38.718Z,100745.67
2023-03-21T04:56:10.557Z,100747.88
2023-03-21T04:58:40.892Z,100747.44
2023-03-21T05:01:10.341Z,100750.63
2023-03-21T05:03:40.591Z,100753.73
2023-03-21T05:06:10.040Z,100752.23
2023-03-21T05:08:38.591Z,100755.83
2023-03-21T05:11:07.394Z,100758.01
2023-03-21T05:13:36.441Z,100762.46
2023-03-21T05:16:05.494Z,100766.48
2023-03-21T05:18:38.993Z,100766.52
2023-03-21T05:21:18.501Z,100769.21
2023-03-21T05:23:54.902Z,100775.59
2023-03-21T05:26:25.234Z,100775.77
2023-03-21T05:28:59.850Z,100774.45
2023-03-21T05:31:28.597Z,100776.46
2023-03-21T05:34:05.943Z,100775.05
2023-03-21T05:36:40.675Z,100782.54
2023-03-21T05:39:11.648Z,100784.45
2023-03-21T05:41:44.391Z,100790.77
2023-03-21T05:44:14.055Z,100792.73
2023-03-21T05:46:47.631Z,100791.34
2023-03-21T05:49:16.217Z,100793.84
2023-03-21T05:51:45.668Z,100793.59
2023-03-21T05:54:16.919Z,100792.14
2023-03-21T05:56:49.060Z,100790.09
2023-03-21T05:59:26.922Z,100790.75
2023-03-21T06:01:55.808Z,100797.16
2023-03-21T06:04:24.676Z,100805.30
2023-03-21T06:06:53.859Z,100804.34
2023-03-21T06:09:26.906Z,100798.02
2023-03-21T06:11:58.826Z,100798.83
2023-03-21T06:14:32.773Z,100797.07
2023-03-21T06:17:12.624Z,100794.70
2023-03-21T06:19:46.919Z,100795.23
2023-03-21T06:22:23.889Z,100799.79
2023-03-21T06:24:53.277Z,100804.88
2023-03-21T06:27:22.186Z,100800.92
2023-03-21T06:30:00.423Z,100795.29
2023-03-21T06:32:32.257Z,100795.86
2023-03-21T06:35:08.783Z,100792.59
2023-03-21T06:37:38.513Z,100794.39
2023-03-21T06:40:09.546Z,100791.48
2023-03-21T06:42:38.231Z,100787.70
2023-03-21T06:45:13.489Z,100785.75
2023-03-21T06:47:42.450Z,100780.58
2023-03-21T06:50:19.640Z,100774.09
2023-03-21T06:52:48.852Z,100774.17
2023-03-21T06:55:19.665Z,100769.65
2023-03-21T06:57:48.438Z,100772.40
2023-03-21T07:00:18.384Z,100772.42
2023-03-21T07:02:56.346Z,100771.42
2023-03-21T07:05:27.981Z,100774.70
2023-03-21T07:07:57.821Z,100772.98
2023-03-21T07:10:32.728Z,100768.98
2023-03-21T07:13:06.844Z,100769.92
2023-03-21T07:15:43.854Z,100765.67
2023-03-21T07:18:14.376Z,100764.85
2023-03-21T07:20:48.674Z,100765.01
2023-03-21T07:23:21.740Z,100763.40
2023-03-21T07:26:00.557Z,100765.02
2023-03-21T07:28:32.181Z,100763.80
2023-03-21T07:31:07.415Z,100768.80
2023-03-21T07:33:37.006Z,100770.30
2023-03-21T07:36:13.654Z,100767.80
2023-03-21T07:38:44.988Z,100765.33
2023-03-21T07:41:13.703Z,100773.88
2023-03-21T07:43:44.571Z,100767.89
2023-03-21T07:46:13.855Z,100768.31
2023-03-21T07:48:43.462Z,100771.52
2023-03-21T07:51:12.382Z,100770.33
2023-03-21T07:53:42.462Z,100775.65
2023-03-21T07:56:11.232Z,100776.82
2023-03-21T07:58:44.214Z,100785.85
2023-03-21T08:01:12.899Z,100790.05
2023-03-21T08:03:41.428Z,100793.17
2023-03-21T08:06:10.849Z,100788.45
2023-03-21T08:08:39.277Z,100782.91
2023-03-21T08:11:07.931Z,100786.59
2023-03-21T08:13:38.883Z,100782.46
2023-03-21T08:16:09.286Z,100782.38
2023-03-21T08:18:44.738Z,100773.77
2023-03-21T08:21:13.454Z,100778.53
2023-03-21T08:23:42.982Z,100781.40
2023-03-21T08:26:12.046Z,100778.48
2023-03-21T08:28:41.813Z,100777.70
2023-03-21T08:31:11.854Z,100778.89
2023-03-21T08:33:40.972Z,100778.17
2023-03-21T08:36:10.157Z,100778.55
2023-03-21T08:38:39.913Z,100772.23
2023-03-21T08:41:13.550Z,100769.34
2023-03-21T08:43:42.210Z,100772.55
2023-03-21T08:46:13.564Z,100767.80
2023-03-21T08:48:43.134Z,100764.52
2023-03-21T08:51:11.515Z,100762.05
2023-03-21T08:53:41.892Z,100763.68
2023-03-21T08:56:11.237Z,100760.87
2023-03-21T08:58:39.867Z,100764.27
2023-03-21T09:01:11.530Z,100760.21
2023-03-21T09:03:40.665Z,100762.67
2023-03-21T09:06:14.507Z,100767.05
2023-03-21T09:08:47.368Z,100756.26
2023-03-21T09:11:17.566Z,100761.38
2023-03-21T09:13:47.095Z,100756.05
2023-03-21T09:16:16.198Z,100755.05
2023-03-21T09:18:50.339Z,100752.40
2023-03-21T09:21:20.830Z,100748.99
2023-03-21T09:23:53.094Z,100749.41
2023-03-21T09:26:22.182Z,100749.97
2023-03-21T09:28:51.531Z,100746.54
2023-03-21T09:31:23.675Z,100750.73
2023-03-21T09:33:58.475Z,100747.40
2023-03-21T09:36:27.545Z,100747.40
2023-03-21T09:38:57.818Z,100753.48
2023-03-21T09:41:27.580Z,100751.95
2023-03-21T09:43:59.853Z,100749.88
2023-03-21T09:46:37.340Z,100750.44
2023-03-21T09:49:08.381Z,100747.33
2023-03-21T09:51:41.517Z,100743.98
2023-03-21T09:54:36.028Z,100737.96
2023-03-21T09:57:23.465Z,100734.55
2023-03-21T09:59:53.984Z,100735.34
2023-03-21T10:02:48.069Z,100732.32
2023-03-21T10:05:22.485Z,100723.79
2023-03-21T10:07:55.476Z,100724.59
2023-03-21T10:10:28.630Z,100725.39
2023-03-21T10:13:36.433Z,100718.41
2023-03-21T10:16:15.568Z,100719.20
2023-03-21T10:18:44.566Z,100719.48
2023-03-21T10:21:47.432Z,100713.05
2023-03-21T10:24:14.064Z,100702.92
2023-03-21T10:26:42.849Z,100701.02
2023-03-21T10:29:13.359Z,100692.61
2023-03-21T10:31:42.005Z,100687.95
2023-03-21T10:34:28.605Z,100688.40
2023-03-21T10:36:57.559Z,100680.16
2023-03-21T10:39:34.657Z,100673.95
2023-03-21T10:42:03.749Z,100666.02
2023-03-21T10:44:34.425Z,100659.13
2023-03-21T10:47:08.111Z,100643.10
2023-03-21T10:49:56.579Z,100631.27
2023-03-21T10:52:28.072Z,100601.91
2023-03-21T10:55:17.352Z,100576.41
2023-03-21T10:57:49.663Z,100554.91
2023-03-21T11:00:23.176Z,100544.14
2023-03-21T11:03:05.709Z,100545.77
2023-03-21T11:05:39.986Z,100543.81
2023-03-21T11:08:12.613Z,100537.40
2023-03-21T11:11:04.310Z,100536.26
2023-03-21T11:13:41.038Z,100534.15
2023-03-21T11:16:20.018Z,100534.89
2023-03-21T11:18:53.203Z,100527.44
2023-03-21T11:21:22.565Z,100524.87
2023-03-21T11:23:53.067Z,100516.07
2023-03-21T11:26:32.766Z,100520.44
2023-03-21T11:29:01.372Z,100523.53
2023-03-21T11:31:39.980Z,100519.14
2023-03-21T11:34:09.288Z,100522.95
2023-03-21T11:36:39.328Z,100523.27
2023-03-21T11:39:11.785Z,100526.89
2023-03-21T11:41:41.537Z,100531.56
2023-03-21T11:44:33.664Z,100526.51
2023-03-21T11:47:02.330Z,100514.11
2023-03-21T11:49:33.116Z,100490.20
2023-03-21T11:52:20.725Z,100481.69
2023-03-21T11:55:07.895Z,100476.23
2023-03-21T11:57:44.085Z,100476.02
2023-03-21T12:00:22.851Z,100481.61
2023-03-21T12:03:07.152Z,100487.97
2023-03-21T12:05:38.419Z,100492.30
2023-03-21T12:08:12.954Z,100496.12
2023-03-21T12:10:50.018Z,100498.48
2023-03-21T12:13:48.710Z,100505.27
2023-03-21T12:16:43.620Z,100499.92
2023-03-21T12:19:38.661Z,100508.98
2023-03-21T12:22:20.742Z,100507.82
2023-03-21T12:25:02.113Z,100503.34
2023-03-21T12:27:38.930Z,100501.07
2023-03-21T12:30:29.844Z,100499.43
2023-03-21T12:33:15.317Z,100495.77
2023-03-21T12:35:55.128Z,100495.81
2023-03-21T12:38:24.866Z,100492.70
2023-03-21T12:41:02.804Z,100497.25
2023-03-21T12:43:35.716Z,100488.11
2023-03-21T12:46:19.429Z,100488.59
2023-03-21T12:49:10.331Z,100507.42
2023-03-21T12:51:42.586Z,100518.66
2023-03-21T12:54:26.734Z,100518.89
2023-03-21T12:57:03.159Z,100516.72
2023-03-21T12:59:38.417Z,100505.33
2023-03-21T13:02:17.953Z,100499.61
2023-03-21T13:05:01.602Z,100511.75
2023-03-21T13:07:34.286Z,100507.88
2023-03-21T13:10:05.125Z,100510.29
2023-03-21T13:12:46.548Z,100511.10
2023-03-21T13:15:34.638Z,100517.61
2023-03-21T13:18:16.917Z,100534.17
2023-03-21T13:20:55.939Z,100537.33
2023-03-21T13:23:26.117Z,100537.34
2023-03-21T13:25:57.747Z,100526.95
2023-03-21T13:28:32.010Z,100510.32
2023-03-21T13:31:18.846Z,100503.23
2023-03-21T13:33:52.050Z,100481.88
2023-03-21T13:36:26.189Z,100462.42
2023-03-21T13:39:06.478Z,100452.54
2023-03-21T13:41:44.079Z,100453.27
2023-03-21T13:44:22.594Z,100442.56
2023-03-21T13:47:04.045Z,100433.95
2023-03-21T13:49:36.251Z,100419.89
2023-03-21T13:52:12.304Z,100416.42
2023-03-21T13:54:54.805Z,100414.08
2023-03-21T13:57:38.463Z,100413.08
2023-03-21T14:00:39.895Z,100417.16
2023-03-21T14:03:10.733Z,100416.86
2023-03-21T14:05:40.065Z,100408.71
2023-03-21T14:08:24.666Z,100416.41
2023-03-21T14:10:58.397Z,100428.40
2023-03-21T14:13:27.724Z,100430.49
2023-03-21T14:16:04.599Z,100429.23
2023-03-21T14:19:01.918Z,100426.14
2023-03-21T14:21:35.691Z,100423.88
2023-03-21T14:24:12.722Z,100430.20
2023-03-21T14:26:45.945Z,100428.92
2023-03-21T14:29:31.969Z,100427.61
2023-03-21T14:32:01.020Z,100425.89
2023-03-21T14:34:33.370Z,100422.33
2023-03-21T14:37:02.449Z,100420.81
2023-03-21T14:39:32.658Z,100419.86
2023-03-21T14:42:06.322Z,100417.95
2023-03-21T14:44:54.395Z,100414.97
2023-03-21T14:47:26.290Z,100410.74
2023-03-21T14:49:54.753Z,100411.55
2023-03-21T14:52:30.636Z,100413.31
2023-03-21T14:55:00.496Z,100411.33
2023-03-21T14:57:31.297Z,100415.29
2023-03-21T15:00:02.192Z,100420.47
2023-03-21T15:02:35.776Z,100423.15
2023-03-21T15:05:22.857Z,100423.95
2023-03-21T15:07:59.943Z,100417.70
2023-03-21T15:10:29.923Z,100422.55
2023-03-21T15:13:00.549Z,100423.34
2023-03-21T15:15:35.073Z,100424.75
2023-03-21T15:18:07.781Z,100424.85
2023-03-21T15:20:39.201Z,100424.17
2023-03-21T15:23:32.443Z,100424.05
2023-03-21T15:26:03.047Z,100427.13
2023-03-21T15:28:34.627Z,100423.11
2023-03-21T15:31:04.588Z,100427.73
2023-03-21T15:33:34.149Z,100425.31
2023-03-21T15:36:02.673Z,100424.80
2023-03-21T15:38:45.253Z,100422.63
2023-03-21T15:41:17.427Z,100421.02
2023-03-21T15:44:01.536Z,100424.91
2023-03-21T15:46:48.682Z,100420.91
2023-03-21T15:49:17.236Z,100421.25
2023-03-21T15:51:57.563Z,100423.92
2023-03-21T15:54:57.272Z,100425.68
2023-03-21T15:57:33.164Z,100436.52
2023-03-21T16:00:08.485Z,100447.17
2023-03-21T16:02:41.502Z,100455.44
2023-03-21T16:05:20.493Z,100461.37
2023-03-21T16:07:48.913Z,100468.79
2023-03-21T16:10:38.313Z,100478.52
2023-03-21T16:13:07.860Z,100493.53
2023-03-21T16:15:36.466Z,100506.02
2023-03-21T16:18:11.351Z,100512.63
2023-03-21T16:20:45.235Z,100519.44
2023-03-21T16:23:14.987Z,100527.15
2023-03-21T16:25:56.232Z,100529.58
2023-03-21T16:28:27.263Z,100526.03
2023-03-21T16:30:55.831Z,100533.13
2023-03-21T16:33:28.942Z,100535.25
2023-03-21T16:35:57.817Z,100537.55
2023-03-21T16:38:30.097Z,100538.64
2023-03-21T16:41:01.254Z,100542.08
2023-03-21T16:43:29.911Z,100550.77
2023-03-21T16:46:00.158Z,100556.35
2023-03-21T16:48:28.639Z,100560.09
2023-03-21T16:50:57.122Z,100564.13
2023-03-21T16:53:25.856Z,100573.83
2023-03-21T16:55:54.733Z,100578.98
2023-03-21T16:58:31.409Z,100586.24
2023-03-21T17:01:01.334Z,100588.54
2023-03-21T17:03:30.017Z,100596.27
2023-03-21T17:06:00.520Z,100601.45
2023-03-21T17:08:30.704Z,100604.23
2023-03-21T17:11:07.286Z,100603.57
2023-03-21T17:13:37.676Z,100597.02
2023-03-21T17:16:06.809Z,100597.76
2023-03-21T17:18:39.315Z,100597.66
2023-03-21T17:21:13.863Z,100599.20
2023-03-21T17:23:42.366Z,100598.23
2023-03-21T17:26:13.197Z,100601.48
2023-03-21T17:28:42.294Z,100605.14
2023-03-21T17:31:16.275Z,100601.02
2023-03-21T17:33:45.180Z,100601.05
2023-03-21T17:36:25.821Z,100608.20
2023-03-21T17:38:54.567Z,100611.16
2023-03-21T17:41:23.017Z,100615.74
2023-03-21T17:43:51.956Z,100615.92
2023-03-21T17:46:25.348Z,100618.52
2023-03-21T17:48:54.500Z,100618.36
2023-03-21T17:51:26.301Z,100620.24
2023-03-21T17:53:54.859Z,100620.96
2023-03-21T17:56:32.937Z,100614.41
2023-03-21T17:59:04.020Z,100614.05
2023-03-21T18:01:35.581Z,100615.08
2023-03-21T18:04:05.409Z,100620.89
2023-03-21T18:06:34.464Z,100620.75
2023-03-21T18:09:07.205Z,100617.89
2023-03-21T18:11:36.095Z,100617.19
2023-03-21T18:14:15.791Z,100621.52
2023-03-21T18:16:48.228Z,100621.73
2023-03-21T18:19:17.033Z,100622.42
2023-03-21T18:21:48.121Z,100620.37
2023-03-21T18:24:17.284Z,100618.58
2023-03-21T18:26:46.202Z,100619.77
2023-03-21T18:32:08.761Z,100621.94
2023-03-21T18:34:38.999Z,100622.59
2023-03-21T18:37:08.679Z,100622.04
2023-03-21T18:39:38.224Z,100622.69
2023-03-21T18:42:07.554Z,100622.17
2023-03-21T18:44:45.695Z,100621.83
2023-03-21T18:47:14.881Z,100623.23
2023-03-21T18:52:38.707Z,100617.19
2023-03-21T18:55:09.012Z,100618.11
2023-03-21T18:57:38.833Z,100616.54
2023-03-21T19:00:13.320Z,100613.73
2023-03-21T19:02:46.958Z,100616.73
2023-03-21T19:05:22.876Z,100616.46
2023-03-21T19:07:51.970Z,100616.07
2023-03-21T19:10:21.511Z,100613.36
2023-03-21T19:12:53.190Z,100613.74
2023-03-21T19:15:22.777Z,100611.43
2023-03-21T19:20:46.926Z,100613.33
2023-03-21T19:23:17.220Z,100609.33
2023-03-21T19:25:47.110Z,100604.27
2023-03-21T19:28:16.002Z,100604.23
2023-03-21T19:30:50.262Z,100600.47
2023-03-21T19:33:24.871Z,100602.72
2023-03-21T19:36:10.843Z,100600.42
2023-03-21T19:38:42.062Z,100601.46
2023-03-21T19:41:10.626Z,100603.32
2023-03-21T19:43:40.304Z,100602.70
2023-03-21T19:46:14.899Z,100606.81
2023-03-21T19:48:44.846Z,100603.80
2023-03-21T19:51:27.564Z,100610.05
2023-03-21T19:53:58.091Z,100607.84
2023-03-21T19:56:27.644Z,100608.61
2023-03-21T19:58:57.375Z,100601.95
2023-03-21T20:01:26.511Z,100604.27
2023-03-21T20:03:56.766Z,100601.94
2023-03-21T20:06:25.513Z,100605.09
2023-03-21T20:09:31.059Z,100599.88
2023-03-21T20:11:47.494Z,100604.92
2023-03-21T20:14:17.501Z,100600.19
2023-03-21T20:16:45.920Z,100597.92
2023-03-21T20:19:16.408Z,100592.88
2023-03-21T20:21:52.326Z,100595.25
2023-03-21T20:24:28.462Z,100593.70
2023-03-21T20:26:57.550Z,100588.34
2023-03-21T20:30:07.656Z,100586.90
2023-03-21T20:32:15.911Z,100585.89
2023-03-21T20:34:44.764Z,100583.85
2023-03-21T20:37:18.879Z,100579.54
2023-03-21T20:39:48.443Z,100581.99
2023-03-21T20:42:16.978Z,100582.65
2023-03-21T20:44:58.702Z,100581.31
2023-03-21T20:47:28.315Z,100581.45
2023-03-21T20:50:00.541Z,100581.25
2023-03-21T20:55:18.926Z,100585.77
2023-03-21T20:57:48.690Z,100579.92
2023-03-21T21:00:17.965Z,100575.13
2023-03-21T21:02:50.687Z,100573.73
2023-03-21T21:05:35.719Z,100571.41
2023-03-21T21:08:04.403Z,100572.80
2023-03-21T21:10:35.044Z,100570.44
2023-03-21T21:13:08.012Z,100568.91
2023-03-21T21:15:37.671Z,100566.73
2023-03-21T21:18:10.189Z,100562.78
2023-03-21T21:20:39.106Z,100558.13
2023-03-21T21:23:09.569Z,100558.40
2023-03-21T21:25:40.301Z,100558.82
2023-03-21T21:28:09.808Z,100556.44
2023-03-21T21:30:41.812Z,100560.13
2023-03-21T21:33:11.368Z,100556.95
2023-03-21T21:35:47.140Z,100555.07
2023-03-21T21:38:19.468Z,100559.11
2023-03-21T21:40:49.166Z,100558.81
2023-03-21T21:43:19.694Z,100563.23
2023-03-21T21:45:49.433Z,100566.31
2023-03-21T21:48:21.376Z,100566.84
2023-03-21T21:50:52.381Z,100569.61
2023-03-21T21:53:23.629Z,100572.79
2023-03-21T21:55:54.275Z,100572.27
2023-03-21T21:58:23.654Z,100570.27
2023-03-21T22:00:52.105Z,100568.62
2023-03-21T22:03:22.490Z,100571.05
2023-03-21T22:05:52.573Z,100575.10
2023-03-21T22:08:21.585Z,100573.48
2023-03-21T22:10:52.173Z,100573.52
2023-03-21T22:13:21.001Z,100569.08
2023-03-21T22:15:52.762Z,100570.29
2023-03-21T22:18:21.817Z,100566.70
2023-03-21T22:20:50.749Z,100573.47
2023-03-21T22:23:19.743Z,100567.64
2023-03-21T22:25:52.470Z,100567.64
2023-03-21T22:28:26.038Z,100569.42
2023-03-21T22:30:55.476Z,100566.48
2023-03-21T22:33:25.457Z,100564.54
2023-03-21T22:35:59.769Z,100561.61
2023-03-21T22:38:28.568Z,100567.20
2023-03-21T22:40:58.022Z,100566.55
2023-03-21T22:43:26.661Z,100566.13
2023-03-21T22:45:55.616Z,100568.58
2023-03-21T22:48:31.846Z,100571.59
2023-03-21T22:51:00.847Z,100568.59
2023-03-21T22:53:29.698Z,100565.62
2023-03-21T22:55:58.212Z,100569.53
2023-03-21T22:58:26.730Z,100568.38
2023-03-21T23:01:01.301Z,100572.44
2023-03-21T23:03:29.875Z,100572.55
2023-03-21T23:06:01.562Z,100577.59
2023-03-21T23:08:30.709Z,100576.73
2023-03-21T23:10:59.591Z,100573.72
2023-03-21T23:13:30.206Z,100573.11
2023-03-21T23:16:05.229Z,100574.40
2023-03-21T23:18:37.359Z,100578.17
2023-03-21T23:21:13.492Z,100573.96
2023-03-21T23:23:50.312Z,100576.12
2023-03-21T23:26:21.029Z,100578.82
2023-03-21T23:28:52.260Z,100578.08
2023-03-21T23:31:23.308Z,100578.86
2023-03-21T23:33:51.824Z,100576.84
2023-03-21T23:36:21.363Z,100578.41
2023-03-21T23:38:50.651Z,100579.15
2023-03-21T23:41:21.139Z,100582.38
2023-03-21T23:43:50.603Z,100587.02
2023-03-21T23:46:19.108Z,100589.09
2023-03-21T23:48:48.848Z,100589.79
2023-03-21T23:51:18.144Z,100589.62
2023-03-21T23:53:47.822Z,100591.69
2023-03-21T23:56:21.433Z,100595.17
2023-03-21T23:58:57.460Z,100600.35
